createdAt,value
2022-12-08T00:01:42.607Z,20.92
2022-12-08T00:04:11.062Z,21.17
2022-12-08T00:07:01.269Z,20.33
2022-12-08T00:09:32.041Z,20.33
2022-12-08T00:12:10.358Z,19.42
2022-12-08T00:14:45.320Z,20.00
2022-12-08T00:17:16.184Z,19.80
2022-12-08T00:19:45.145Z,20.65
2022-12-08T00:22:14.767Z,19.38
2022-12-08T00:24:45.584Z,20.80
2022-12-08T00:27:15.921Z,19.48
2022-12-08T00:29:45.662Z,19.88
2022-12-08T00:32:13.887Z,20.48
2022-12-08T00:34:41.544Z,21.45
2022-12-08T00:37:09.590Z,21.60
2022-12-08T00:39:37.238Z,20.05
2022-12-08T00:42:14.338Z,20.23
2022-12-08T00:44:46.590Z,19.95
2022-12-08T00:47:15.275Z,20.50
2022-12-08T00:49:43.020Z,19.25
2022-12-08T00:52:12.732Z,20.23
2022-12-08T00:57:08.367Z,18.65
2022-12-08T00:59:36.008Z,19.73
2022-12-08T01:02:04.213Z,19.23
2022-12-08T01:04:50.515Z,18.60
2022-12-08T01:07:18.524Z,19.83
2022-12-08T01:09:47.707Z,19.05
2022-12-08T01:12:15.704Z,18.02
2022-12-08T01:14:43.405Z,19.13
2022-12-08T01:17:11.420Z,18.33
2022-12-08T01:19:39.079Z,17.55
2022-12-08T01:22:07.141Z,18.48
2022-12-08T01:24:35.579Z,18.55
2022-12-08T01:27:03.480Z,17.98
2022-12-08T01:29:31.121Z,17.30
2022-12-08T01:31:59.050Z,17.10
2022-12-08T01:34:26.651Z,17.88
2022-12-08T01:36:54.941Z,16.95
2022-12-08T01:39:37.853Z,18.00
2022-12-08T01:42:06.014Z,17.33
2022-12-08T01:44:33.420Z,18.48
2022-12-08T01:47:01.426Z,18.10
2022-12-08T01:49:34.299Z,18.15
2022-12-08T01:52:18.539Z,17.83
2022-12-08T01:54:59.835Z,17.92
2022-12-08T01:57:53.018Z,16.13
2022-12-08T02:00:22.906Z,14.45
2022-12-08T02:03:20.603Z,13.98
2022-12-08T02:05:48.837Z,13.25
2022-12-08T02:08:17.883Z,13.80
2022-12-08T02:10:52.357Z,14.88
2022-12-08T02:13:23.300Z,13.25
2022-12-08T02:16:27.530Z,13.95
2022-12-08T02:19:33.648Z,14.43
2022-12-08T02:22:20.488Z,13.98
2022-12-08T02:25:17.769Z,13.43
2022-12-08T02:28:03.665Z,12.60
2022-12-08T02:30:54.646Z,13.85
2022-12-08T02:34:17.568Z,13.32
2022-12-08T02:37:11.493Z,13.85
2022-12-08T02:39:42.729Z,13.95
2022-12-08T02:42:45.133Z,15.02
2022-12-08T02:45:55.535Z,15.35
2022-12-08T02:48:28.866Z,15.35
2022-12-08T02:50:56.758Z,16.55
2022-12-08T02:53:24.969Z,15.43
2022-12-08T02:56:06.394Z,15.85
2022-12-08T02:58:54.968Z,15.95
2022-12-08T03:01:34.771Z,15.68
2022-12-08T03:04:17.663Z,14.27
2022-12-08T03:07:02.715Z,14.57
2022-12-08T03:09:56.733Z,14.93
2022-12-08T03:12:56.329Z,14.80
2022-12-08T03:15:24.857Z,14.25
2022-12-08T03:17:58.414Z,13.88
2022-12-08T03:20:30.173Z,14.07
2022-12-08T03:23:02.132Z,14.98
2022-12-08T03:25:34.477Z,14.52
2022-12-08T03:28:02.272Z,15.25
2022-12-08T03:30:34.894Z,17.48
2022-12-08T03:33:23.658Z,16.60
2022-12-08T03:35:53.619Z,15.98
2022-12-08T03:41:09.864Z,15.50
2022-12-08T03:43:38.328Z,15.57
2022-12-08T03:46:06.493Z,15.63
2022-12-08T03:48:34.358Z,16.15
2022-12-08T03:51:02.502Z,17.13
2022-12-08T03:53:30.224Z,17.45
2022-12-08T03:55:58.382Z,17.30
2022-12-08T03:58:25.937Z,16.05
2022-12-08T04:00:53.915Z,16.15
2022-12-08T04:03:21.649Z,18.23
2022-12-08T04:05:49.604Z,18.02
2022-12-08T04:08:17.316Z,18.75
2022-12-08T04:10:45.271Z,16.98
2022-12-08T04:13:12.820Z,18.77
2022-12-08T04:15:45.239Z,16.83
2022-12-08T04:18:13.585Z,17.33
2022-12-08T04:20:46.371Z,16.47
2022-12-08T04:23:14.036Z,17.02
2022-12-08T04:25:42.087Z,16.80
2022-12-08T04:28:09.791Z,14.45
2022-12-08T04:30:37.804Z,14.13
2022-12-08T04:33:06.030Z,15.82
2022-12-08T04:35:33.989Z,15.95
2022-12-08T04:38:01.933Z,14.27
2022-12-08T04:40:29.810Z,12.55
2022-12-08T04:42:57.385Z,12.88
2022-12-08T04:45:25.339Z,13.45
2022-12-08T04:47:53.033Z,11.48
2022-12-08T04:50:20.975Z,12.02
2022-12-08T04:52:48.578Z,13.35
2022-12-08T04:55:16.705Z,11.13
2022-12-08T04:57:44.310Z,12.00
2022-12-08T05:00:13.709Z,11.48
2022-12-08T05:02:41.514Z,10.80
2022-12-08T05:05:10.273Z,11.93
2022-12-08T05:07:38.455Z,11.63
2022-12-08T05:10:07.606Z,11.77
2022-12-08T05:12:36.121Z,10.63
2022-12-08T05:15:04.605Z,13.38
2022-12-08T05:17:32.100Z,14.40
2022-12-08T05:20:00.046Z,14.95
2022-12-08T05:22:27.694Z,14.10
2022-12-08T05:24:55.628Z,14.05
2022-12-08T05:27:23.151Z,13.95
2022-12-08T05:29:51.027Z,13.93
2022-12-08T05:32:18.538Z,13.52
2022-12-08T05:34:46.594Z,13.90
2022-12-08T05:37:14.266Z,13.45
2022-12-08T05:39:42.136Z,12.90
2022-12-08T05:42:09.748Z,13.32
2022-12-08T05:44:37.842Z,12.85
2022-12-08T05:47:05.575Z,11.75
2022-12-08T05:49:33.946Z,14.32
2022-12-08T05:52:02.061Z,13.50
2022-12-08T05:54:30.509Z,14.32
2022-12-08T05:56:58.283Z,14.60
2022-12-08T05:59:26.320Z,14.52
2022-12-08T06:01:53.933Z,15.60
2022-12-08T06:04:22.294Z,14.75
2022-12-08T06:06:50.116Z,16.55
2022-12-08T06:09:18.044Z,18.75
2022-12-08T06:11:47.239Z,16.30
2022-12-08T06:16:42.715Z,17.70
2022-12-08T06:19:10.785Z,18.63
2022-12-08T06:21:38.532Z,19.33
2022-12-08T06:24:06.725Z,18.40
2022-12-08T06:26:36.190Z,19.50
2022-12-08T06:29:05.184Z,19.60
2022-12-08T06:31:32.847Z,19.33
2022-12-08T06:34:00.959Z,20.70
2022-12-08T06:36:28.805Z,23.42
2022-12-08T06:38:57.292Z,24.17
2022-12-08T06:41:25.542Z,31.20
2022-12-08T06:43:57.627Z,32.03
2022-12-08T06:46:25.559Z,36.25
2022-12-08T06:48:54.372Z,34.75
2022-12-08T06:51:25.596Z,31.05
2022-12-08T06:53:53.694Z,31.73
2022-12-08T06:56:23.951Z,29.90
2022-12-08T06:58:52.958Z,28.10
2022-12-08T07:01:21.062Z,30.05
2022-12-08T07:03:49.195Z,25.35
2022-12-08T07:06:25.421Z,28.25
2022-12-08T07:08:53.377Z,28.05
2022-12-08T07:11:22.363Z,28.15
2022-12-08T07:13:51.164Z,26.70
2022-12-08T07:16:19.037Z,26.98
2022-12-08T07:18:47.157Z,29.05
2022-12-08T07:21:16.152Z,29.25
2022-12-08T07:23:50.239Z,30.25
2022-12-08T07:26:21.974Z,32.38
2022-12-08T07:28:49.915Z,33.17
2022-12-08T07:31:24.945Z,35.83
2022-12-08T07:33:53.863Z,33.78
2022-12-08T07:36:22.919Z,33.83
2022-12-08T07:38:53.414Z,31.52
2022-12-08T07:41:25.489Z,32.22
2022-12-08T07:43:54.421Z,30.92
2022-12-08T07:46:25.362Z,30.50
2022-12-08T07:48:55.202Z,28.58
2022-12-08T07:51:24.913Z,28.98
2022-12-08T07:53:54.594Z,27.65
2022-12-08T07:56:23.619Z,25.10
2022-12-08T07:58:51.999Z,24.42
2022-12-08T08:01:31.890Z,25.58
2022-12-08T08:04:04.693Z,24.10
2022-12-08T08:06:33.897Z,26.08
2022-12-08T08:09:01.790Z,27.00
2022-12-08T08:11:29.516Z,26.20
2022-12-08T08:13:57.817Z,27.52
2022-12-08T08:16:25.453Z,25.83
2022-12-08T08:18:53.821Z,24.50
2022-12-08T08:21:45.058Z,24.52
2022-12-08T08:24:11.105Z,24.10
2022-12-08T08:26:38.714Z,25.92
2022-12-08T08:29:07.210Z,25.08
2022-12-08T08:31:34.949Z,27.15
2022-12-08T08:34:06.375Z,26.83
2022-12-08T08:36:35.433Z,25.80
2022-12-08T08:39:04.586Z,24.77
2022-12-08T08:41:32.378Z,24.98
2022-12-08T08:44:00.268Z,28.58
2022-12-08T08:46:28.133Z,29.63
2022-12-08T08:48:56.366Z,27.08
2022-12-08T08:51:24.018Z,24.90
2022-12-08T08:53:51.976Z,25.25
2022-12-08T08:56:20.014Z,21.80
2022-12-08T08:58:49.568Z,21.67
2022-12-08T09:01:24.064Z,22.38
2022-12-08T09:03:53.334Z,24.60
2022-12-08T09:06:21.545Z,25.48
2022-12-08T09:08:50.092Z,25.47
2022-12-08T09:11:18.813Z,27.48
2022-12-08T09:13:51.949Z,27.50
2022-12-08T09:16:20.067Z,27.75
2022-12-08T09:18:51.478Z,31.15
2022-12-08T09:21:23.779Z,30.23
2022-12-08T09:23:57.653Z,32.63
2022-12-08T09:26:28.096Z,30.30
2022-12-08T09:28:57.173Z,31.15
2022-12-08T09:31:25.810Z,30.83
2022-12-08T09:33:53.830Z,28.48
2022-12-08T09:36:21.698Z,28.13
2022-12-08T09:38:51.200Z,30.23
2022-12-08T09:41:48.335Z,33.33
2022-12-08T09:44:29.101Z,33.28
2022-12-08T09:46:58.743Z,33.22
2022-12-08T09:49:47.192Z,31.67
2022-12-08T09:52:58.058Z,32.90
2022-12-08T09:55:57.739Z,31.30
2022-12-08T10:00:56.574Z,30.27
2022-12-08T10:03:29.848Z,30.92
2022-12-08T10:06:50.971Z,32.50
2022-12-08T10:09:57.739Z,32.38
2022-12-08T10:12:47.778Z,34.65
2022-12-08T10:15:18.090Z,36.30
2022-12-08T10:17:49.608Z,37.47
2022-12-08T10:20:29.397Z,38.45
2022-12-08T10:23:12.669Z,42.70
2022-12-08T10:25:53.562Z,42.58
2022-12-08T10:28:21.471Z,41.30
2022-12-08T10:30:49.082Z,41.78
2022-12-08T10:33:20.883Z,42.95
2022-12-08T10:35:54.681Z,42.10
2022-12-08T10:38:31.677Z,41.58
2022-12-08T10:41:20.847Z,41.72
2022-12-08T10:46:28.447Z,39.50
2022-12-08T10:49:11.973Z,39.40
2022-12-08T10:51:43.581Z,40.58
2022-12-08T10:54:38.726Z,45.08
2022-12-08T10:57:06.283Z,40.63
2022-12-08T10:59:34.612Z,42.42
2022-12-08T11:02:02.234Z,40.20
2022-12-08T11:04:38.370Z,43.25
2022-12-08T11:07:08.844Z,42.22
2022-12-08T11:09:49.118Z,44.78
2022-12-08T11:12:22.070Z,44.83
2022-12-08T11:15:05.314Z,43.80
2022-12-08T11:17:40.668Z,43.90
2022-12-08T11:20:11.544Z,45.83
2022-12-08T11:22:56.567Z,45.50
2022-12-08T11:25:27.382Z,41.58
2022-12-08T11:28:00.649Z,43.03
2022-12-08T11:30:38.934Z,46.47
2022-12-08T11:33:28.639Z,45.40
2022-12-08T11:36:10.282Z,46.38
2022-12-08T11:38:46.442Z,43.92
2022-12-08T11:41:26.315Z,43.85
2022-12-08T11:44:10.272Z,48.03
2022-12-08T11:47:01.131Z,45.53
2022-12-08T11:49:39.531Z,44.35
2022-12-08T11:52:29.472Z,47.63
2022-12-08T11:57:48.703Z,42.13
2022-12-08T12:02:54.755Z,42.17
2022-12-08T12:06:38.342Z,42.00
2022-12-08T12:09:39.211Z,45.50
2022-12-08T12:12:25.276Z,44.08
2022-12-08T12:15:08.058Z,43.80
2022-12-08T12:18:25.642Z,41.03
2022-12-08T12:21:16.368Z,37.85
2022-12-08T12:24:26.073Z,39.75
2022-12-08T12:27:08.472Z,39.95
2022-12-08T12:29:38.935Z,38.00
2022-12-08T12:32:10.524Z,40.47
2022-12-08T12:34:52.348Z,37.42
2022-12-08T12:37:36.347Z,36.65
2022-12-08T12:40:16.259Z,36.20
2022-12-08T12:42:56.093Z,34.75
2022-12-08T12:48:01.049Z,34.42
2022-12-08T12:50:35.022Z,36.63
2022-12-08T12:53:15.844Z,33.97
2022-12-08T12:55:46.327Z,34.67
2022-12-08T12:58:32.141Z,36.88
2022-12-08T13:01:12.148Z,38.58
2022-12-08T13:04:08.464Z,37.88
2022-12-08T13:06:46.113Z,39.78
2022-12-08T13:09:28.140Z,44.85
2022-12-08T13:12:01.124Z,50.35
2022-12-08T13:14:49.516Z,53.30
2022-12-08T13:17:37.342Z,57.53
2022-12-08T13:20:17.511Z,51.33
2022-12-08T13:22:54.758Z,48.90
2022-12-08T13:25:41.146Z,43.55
2022-12-08T13:28:31.101Z,42.08
2022-12-08T13:31:01.953Z,37.50
2022-12-08T13:33:40.905Z,38.03
2022-12-08T13:36:26.529Z,37.35
2022-12-08T13:38:58.203Z,37.08
2022-12-08T13:41:58.518Z,37.42
2022-12-08T13:57:28.751Z,38.42
2022-12-08T14:00:02.712Z,38.50
2022-12-08T14:02:47.876Z,43.03
2022-12-08T14:05:40.527Z,40.90
2022-12-08T14:09:00.067Z,41.95
2022-12-08T14:11:35.956Z,41.70
2022-12-08T14:14:32.514Z,39.35
2022-12-08T14:17:16.483Z,37.53
2022-12-08T14:19:53.597Z,37.03
2022-12-08T14:22:21.936Z,34.70
2022-12-08T14:24:55.355Z,35.55
2022-12-08T14:27:26.628Z,32.78
2022-12-08T14:30:01.612Z,30.83
2022-12-08T14:32:30.223Z,32.78
2022-12-08T14:35:08.953Z,29.83
2022-12-08T14:37:50.709Z,37.00
2022-12-08T14:40:38.486Z,45.42
2022-12-08T14:43:09.166Z,48.60
2022-12-08T14:45:42.616Z,46.10
2022-12-08T14:48:21.290Z,44.67
2022-12-08T14:50:54.898Z,42.40
2022-12-08T14:53:24.293Z,44.70
2022-12-08T14:55:52.420Z,44.45
2022-12-08T14:58:30.311Z,45.05
2022-12-08T15:01:00.208Z,50.90
2022-12-08T15:03:31.534Z,48.60
2022-12-08T15:06:06.291Z,42.60
2022-12-08T15:08:50.808Z,36.13
2022-12-08T15:11:30.152Z,32.22
2022-12-08T15:13:58.826Z,35.33
2022-12-08T15:16:36.343Z,39.67
2022-12-08T15:19:40.895Z,47.00
2022-12-08T15:22:22.997Z,45.55
2022-12-08T15:24:50.828Z,42.25
2022-12-08T15:27:21.776Z,41.97
2022-12-08T15:29:51.381Z,42.15
2022-12-08T15:32:24.237Z,42.13
2022-12-08T15:34:52.304Z,34.75
2022-12-08T15:37:26.680Z,32.85
2022-12-08T15:39:54.978Z,28.30
2022-12-08T15:42:22.626Z,28.33
2022-12-08T15:44:51.863Z,29.42
2022-12-08T15:47:24.747Z,30.20
2022-12-08T15:49:53.474Z,26.55
2022-12-08T15:52:25.039Z,24.92
2022-12-08T15:54:53.255Z,24.40
2022-12-08T15:57:59.153Z,24.35
2022-12-08T16:00:55.558Z,25.98
2022-12-08T16:09:40.753Z,26.58
2022-12-08T16:13:40.434Z,30.17
2022-12-08T16:18:24.107Z,30.80
2022-12-08T16:21:09.754Z,30.00
2022-12-08T16:23:44.607Z,28.25
2022-12-08T16:29:20.461Z,29.98
2022-12-08T16:31:49.332Z,28.73
2022-12-08T16:34:17.339Z,30.08
2022-12-08T16:36:44.951Z,33.92
2022-12-08T16:39:14.625Z,33.33
2022-12-08T16:44:28.678Z,34.28
2022-12-08T16:46:56.262Z,32.50
2022-12-08T16:49:25.108Z,35.72
2022-12-08T16:51:52.868Z,43.63
2022-12-08T16:54:20.747Z,40.40
2022-12-08T16:56:48.360Z,40.95
2022-12-08T16:59:16.161Z,43.97
2022-12-08T17:01:43.731Z,46.88
2022-12-08T17:04:31.134Z,49.10
2022-12-08T17:06:59.572Z,47.10
2022-12-08T17:09:28.607Z,48.95
2022-12-08T17:12:01.827Z,51.78
2022-12-08T17:14:36.332Z,54.00
2022-12-08T17:17:04.271Z,51.67
2022-12-08T17:19:33.146Z,53.95
2022-12-08T17:22:02.300Z,50.45
2022-12-08T17:27:04.073Z,47.92
2022-12-08T17:29:33.378Z,51.50
2022-12-08T17:32:01.419Z,53.75
2022-12-08T17:34:29.568Z,53.05
2022-12-08T17:36:57.316Z,51.58
2022-12-08T17:39:25.812Z,53.50
2022-12-08T17:41:53.546Z,57.83
2022-12-08T17:44:21.801Z,52.40
2022-12-08T17:46:52.961Z,52.28
2022-12-08T17:49:29.766Z,55.40
2022-12-08T17:52:01.278Z,55.33
2022-12-08T17:54:30.449Z,64.35
2022-12-08T17:56:58.858Z,62.33
2022-12-08T17:59:28.826Z,61.80
2022-12-08T18:01:58.684Z,53.70
2022-12-08T18:04:28.145Z,58.17
2022-12-08T18:06:58.333Z,51.50
2022-12-08T18:09:26.408Z,48.35
2022-12-08T18:11:53.987Z,55.25
2022-12-08T18:14:22.041Z,54.53
2022-12-08T18:16:49.666Z,55.05
2022-12-08T18:19:18.589Z,54.67
2022-12-08T18:21:46.378Z,52.55
2022-12-08T18:24:22.505Z,52.83
2022-12-08T18:26:52.983Z,53.35
2022-12-08T18:29:23.161Z,55.90
2022-12-08T18:31:51.866Z,51.80
2022-12-08T18:34:20.526Z,48.22
2022-12-08T18:36:48.816Z,48.38
2022-12-08T18:39:32.560Z,49.78
2022-12-08T18:42:22.886Z,47.88
2022-12-08T18:44:52.848Z,48.60
2022-12-08T18:47:20.557Z,46.35
2022-12-08T18:49:48.778Z,46.60
2022-12-08T18:52:20.423Z,47.03
2022-12-08T18:55:06.196Z,48.65
2022-12-08T18:57:38.916Z,50.35
2022-12-08T19:00:10.114Z,51.65
2022-12-08T19:02:38.922Z,55.13
2022-12-08T19:05:09.155Z,57.75
2022-12-08T19:07:37.661Z,50.35
2022-12-08T19:10:07.127Z,52.40
2022-12-08T19:12:35.021Z,52.15
2022-12-08T19:15:03.245Z,53.35
2022-12-08T19:17:31.091Z,55.65
2022-12-08T19:19:59.157Z,55.13
2022-12-08T19:22:26.767Z,57.35
2022-12-08T19:24:54.735Z,59.17
2022-12-08T19:27:22.448Z,60.67
2022-12-08T19:29:50.691Z,66.45
2022-12-08T19:32:18.395Z,70.55
2022-12-08T19:34:46.632Z,68.32
2022-12-08T19:37:15.373Z,67.07
2022-12-08T19:40:01.997Z,68.20
2022-12-08T19:42:48.431Z,71.97
2022-12-08T19:45:21.675Z,77.93
2022-12-08T19:47:49.421Z,73.10
2022-12-08T19:50:37.000Z,74.72
2022-12-08T19:53:14.973Z,72.55
2022-12-08T19:55:44.428Z,73.45
2022-12-08T19:58:12.273Z,64.80
2022-12-08T20:00:41.465Z,71.13
2022-12-08T20:03:10.776Z,68.47
2022-12-08T20:05:41.911Z,66.20
2022-12-08T20:08:10.080Z,72.85
2022-12-08T20:10:42.627Z,76.63
2022-12-08T20:13:29.906Z,74.68
2022-12-08T20:15:58.485Z,75.93
2022-12-08T20:18:26.218Z,73.00
2022-12-08T20:20:54.244Z,79.70
2022-12-08T20:23:22.226Z,76.97
2022-12-08T20:25:50.358Z,82.43
2022-12-08T20:28:19.135Z,75.05
2022-12-08T20:30:49.075Z,75.13
2022-12-08T20:33:19.087Z,75.22
2022-12-08T20:35:48.146Z,71.32
2022-12-08T20:38:17.356Z,70.88
2022-12-08T20:45:43.078Z,66.72
2022-12-08T20:48:10.984Z,71.13
2022-12-08T20:50:38.942Z,69.47
2022-12-08T20:53:06.801Z,71.57
2022-12-08T20:55:35.735Z,70.97
2022-12-08T20:58:03.779Z,73.53
2022-12-08T21:00:31.950Z,74.88
2022-12-08T21:02:59.712Z,71.65
2022-12-08T21:05:27.913Z,71.85
2022-12-08T21:07:56.219Z,81.57
2022-12-08T21:10:24.319Z,81.55
2022-12-08T21:12:51.958Z,76.18
2022-12-08T21:15:19.887Z,77.65
2022-12-08T21:17:47.718Z,79.60
2022-12-08T21:20:15.956Z,80.10
2022-12-08T21:22:43.796Z,73.20
2022-12-08T21:25:11.972Z,64.30
2022-12-08T21:27:40.317Z,79.20
2022-12-08T21:30:10.278Z,70.87
2022-12-08T21:32:39.742Z,69.25
2022-12-08T21:37:36.159Z,76.85
2022-12-08T21:40:07.701Z,82.05
2022-12-08T21:42:45.052Z,77.25
2022-12-08T21:45:17.671Z,74.72
2022-12-08T21:47:47.260Z,74.80
2022-12-08T21:50:16.153Z,71.57
2022-12-08T21:52:46.863Z,72.03
2022-12-08T21:55:19.156Z,69.53
2022-12-08T21:57:47.494Z,71.38
2022-12-08T22:00:17.734Z,71.40
2022-12-08T22:02:46.581Z,66.13
2022-12-08T22:05:15.022Z,62.80
2022-12-08T22:07:42.804Z,61.53
2022-12-08T22:10:12.209Z,61.42
2022-12-08T22:12:41.107Z,60.55
2022-12-08T22:15:11.464Z,56.70
2022-12-08T22:17:41.735Z,59.63
2022-12-08T22:20:14.981Z,52.33
2022-12-08T22:22:43.146Z,48.00
2022-12-08T22:25:12.063Z,55.47
2022-12-08T22:27:41.565Z,51.47
2022-12-08T22:30:10.850Z,52.42
2022-12-08T22:35:07.856Z,57.00
2022-12-08T22:37:35.645Z,54.88
2022-12-08T22:40:04.827Z,52.90
2022-12-08T22:42:33.068Z,57.13
2022-12-08T22:45:01.449Z,56.20
2022-12-08T22:47:29.134Z,58.85
2022-12-08T22:49:57.191Z,54.50
2022-12-08T22:52:24.920Z,53.58
2022-12-08T22:54:53.059Z,46.90
2022-12-08T22:57:20.728Z,41.40
2022-12-08T22:59:48.661Z,37.83
2022-12-08T23:02:16.281Z,35.92
2022-12-08T23:04:46.553Z,43.78
2022-12-08T23:07:14.484Z,45.22
2022-12-08T23:09:42.727Z,41.75
2022-12-08T23:12:10.601Z,41.20
2022-12-08T23:14:38.611Z,40.35
2022-12-08T23:17:06.291Z,40.30
2022-12-08T23:19:37.617Z,45.15
2022-12-08T23:22:05.482Z,44.28
2022-12-08T23:24:34.015Z,43.83
2022-12-08T23:27:02.317Z,45.00
2022-12-08T23:29:30.766Z,43.08
2022-12-08T23:31:58.584Z,42.30
2022-12-08T23:34:26.833Z,45.30
2022-12-08T23:36:54.774Z,47.67
2022-12-08T23:39:24.887Z,41.47
2022-12-08T23:41:52.823Z,43.20
2022-12-08T23:44:20.858Z,44.25
2022-12-08T23:46:48.634Z,42.22
2022-12-08T23:49:16.959Z,43.97
2022-12-08T23:51:44.803Z,45.15
2022-12-08T23:54:13.033Z,43.38
2022-12-08T23:56:40.837Z,44.25
2022-12-08T23:59:09.196Z,49.60
